sensor_id;sensor_type;location;lat;lon;timestamp;temperature;humidity
15044;DHT22;7619;48.562;8.910;2022-12-08T00:00:21;-0.30;99.90
15044;DHT22;7619;48.562;8.910;2022-12-08T00:02:50;-0.30;99.90
15044;DHT22;7619;48.562;8.910;2022-12-08T00:13:32;-0.50;99.90
15044;DHT22;7619;48.562;8.910;2022-12-08T00:16:01;-0.50;99.90
15044;DHT22;7619;48.562;8.910;2022-12-08T00:18:31;-0.60;99.90
15044;DHT22;7619;48.562;8.910;2022-12-08T00:21:00;-0.60;99.90
15044;DHT22;7619;48.562;8.910;2022-12-08T00:23:29;-0.70;99.90
15044;DHT22;7619;48.562;8.910;2022-12-08T00:26:02;-0.70;99.90
15044;DHT22;7619;48.562;8.910;2022-12-08T00:31:01;-0.90;99.90
15044;DHT22;7619;48.562;8.910;2022-12-08T00:33:30;-0.90;99.90
15044;DHT22;7619;48.562;8.910;2022-12-08T00:38:29;-1.00;99.90
15044;DHT22;7619;48.562;8.910;2022-12-08T00:40:58;-1.10;99.90
15044;DHT22;7619;48.562;8.910;2022-12-08T00:43:27;-1.10;99.90
15044;DHT22;7619;48.562;8.910;2022-12-08T00:45:56;-1.10;99.90
15044;DHT22;7619;48.562;8.910;2022-12-08T00:48:25;-1.10;99.90
15044;DHT22;7619;48.562;8.910;2022-12-08T00:50:54;-1.00;99.90
15044;DHT22;7619;48.562;8.910;2022-12-08T00:53:23;-1.00;99.90
15044;DHT22;7619;48.562;8.910;2022-12-08T01:00:48;-1.10;99.90
15044;DHT22;7619;48.562;8.910;2022-12-08T01:03:17;-1.10;99.90
15044;DHT22;7619;48.562;8.910;2022-12-08T01:05:46;-1.20;99.90
15044;DHT22;7619;48.562;8.910;2022-12-08T01:08:18;-1.20;99.90
15044;DHT22;7619;48.562;8.910;2022-12-08T01:10:47;-1.20;99.90
15044;DHT22;7619;48.562;8.910;2022-12-08T01:13:16;-1.20;99.90
15044;DHT22;7619;48.562;8.910;2022-12-08T01:15:44;-1.20;99.90
15044;DHT22;7619;48.562;8.910;2022-12-08T01:18:13;-1.20;99.90
15044;DHT22;7619;48.562;8.910;2022-12-08T01:28:06;-1.40;99.90
15044;DHT22;7619;48.562;8.910;2022-12-08T01:35:34;-1.40;99.90
15044;DHT22;7619;48.562;8.910;2022-12-08T01:40:31;-1.50;99.90
15044;DHT22;7619;48.562;8.910;2022-12-08T01:43:00;-1.50;99.90
15044;DHT22;7619;48.562;8.910;2022-12-08T01:45:30;-1.50;99.90
15044;DHT22;7619;48.562;8.910;2022-12-08T01:50:29;-1.50;99.90
15044;DHT22;7619;48.562;8.910;2022-12-08T01:53:01;-1.60;99.90
15044;DHT22;7619;48.562;8.910;2022-12-08T02:00:30;-1.60;99.90
15044;DHT22;7619;48.562;8.910;2022-12-08T02:03:02;-1.60;99.90
15044;DHT22;7619;48.562;8.910;2022-12-08T02:05:32;-1.70;99.90
15044;DHT22;7619;48.562;8.910;2022-12-08T02:10:35;-1.60;99.90
15044;DHT22;7619;48.562;8.910;2022-12-08T02:18:10;-1.70;99.90
15044;DHT22;7619;48.562;8.910;2022-12-08T02:20:46;-1.70;99.90
15044;DHT22;7619;48.562;8.910;2022-12-08T02:39:07;-1.90;99.90
15044;DHT22;7619;48.562;8.910;2022-12-08T02:44:10;-1.80;99.90
15044;DHT22;7619;48.562;8.910;2022-12-08T02:46:44;-1.90;99.90
15044;DHT22;7619;48.562;8.910;2022-12-08T02:51:42;-2.00;99.90
15044;DHT22;7619;48.562;8.910;2022-12-08T02:54:11;-2.00;99.90
15044;DHT22;7619;48.562;8.910;2022-12-08T03:01:57;-2.20;99.90
15044;DHT22;7619;48.562;8.910;2022-12-08T03:11:58;-2.00;99.90
15044;DHT22;7619;48.562;8.910;2022-12-08T03:14:29;-2.10;99.90
15044;DHT22;7619;48.562;8.910;2022-12-08T03:19:29;-2.30;99.90
15044;DHT22;7619;48.562;8.910;2022-12-08T03:22:00;-2.30;99.90
15044;DHT22;7619;48.562;8.910;2022-12-08T03:24:33;-2.40;99.90
15044;DHT22;7619;48.562;8.910;2022-12-08T03:27:04;-2.40;99.90
15044;DHT22;7619;48.562;8.910;2022-12-08T03:32:05;-2.20;99.90
15044;DHT22;7619;48.562;8.910;2022-12-08T03:34:35;-2.30;99.90
15044;DHT22;7619;48.562;8.910;2022-12-08T03:37:04;-2.30;99.90
15044;DHT22;7619;48.562;8.910;2022-12-08T03:39:33;-2.30;99.90
15044;DHT22;7619;48.562;8.910;2022-12-08T03:42:02;-2.40;99.90
15044;DHT22;7619;48.562;8.910;2022-12-08T03:46:59;-2.40;99.90
15044;DHT22;7619;48.562;8.910;2022-12-08T03:49:28;-2.40;99.90
15044;DHT22;7619;48.562;8.910;2022-12-08T03:51:57;-2.40;99.90
15044;DHT22;7619;48.562;8.910;2022-12-08T03:59:22;-2.30;99.90
15044;DHT22;7619;48.562;8.910;2022-12-08T04:01:51;-2.30;99.90
15044;DHT22;7619;48.562;8.910;2022-12-08T04:04:20;-2.40;99.90
15044;DHT22;7619;48.562;8.910;2022-12-08T04:06:49;-2.40;99.90
15044;DHT22;7619;48.562;8.910;2022-12-08T04:09:18;-2.40;99.90
15044;DHT22;7619;48.562;8.910;2022-12-08T04:11:47;-2.40;99.90
15044;DHT22;7619;48.562;8.910;2022-12-08T04:14:16;-2.40;99.90
15044;DHT22;7619;48.562;8.910;2022-12-08T04:21:41;-2.40;99.90
15044;DHT22;7619;48.562;8.910;2022-12-08T04:24:10;-2.50;99.90
15044;DHT22;7619;48.562;8.910;2022-12-08T04:26:39;-2.60;99.90
15044;DHT22;7619;48.562;8.910;2022-12-08T04:29:08;-2.50;99.90
15044;DHT22;7619;48.562;8.910;2022-12-08T04:31:37;-2.50;99.90
15044;DHT22;7619;48.562;8.910;2022-12-08T04:34:06;-2.60;99.90
15044;DHT22;7619;48.562;8.910;2022-12-08T05:01:15;-3.10;99.90
15044;DHT22;7619;48.562;8.910;2022-12-08T05:03:44;-3.20;99.90
15044;DHT22;7619;48.562;8.910;2022-12-08T05:11:11;-3.10;99.90
15044;DHT22;7619;48.562;8.910;2022-12-08T05:26:03;-3.10;99.90
15044;DHT22;7619;48.562;8.910;2022-12-08T05:31:00;-3.00;99.90
15044;DHT22;7619;48.562;8.910;2022-12-08T05:33:29;-3.00;99.90
15044;DHT22;7619;48.562;8.910;2022-12-08T05:41:02;-3.00;99.90
15044;DHT22;7619;48.562;8.910;2022-12-08T05:43:31;-3.00;99.90
15044;DHT22;7619;48.562;8.910;2022-12-08T05:46:00;-3.20;99.90
15044;DHT22;7619;48.562;8.910;2022-12-08T05:48:29;-3.50;99.90
15044;DHT22;7619;48.562;8.910;2022-12-08T05:50:59;-3.50;99.90
15044;DHT22;7619;48.562;8.910;2022-12-08T05:53:28;-3.60;99.90
15044;DHT22;7619;48.562;8.910;2022-12-08T05:55:57;-3.60;99.90
15044;DHT22;7619;48.562;8.910;2022-12-08T05:58:26;-3.60;99.90
15044;DHT22;7619;48.562;8.910;2022-12-08T06:00:55;-3.60;99.90
15044;DHT22;7619;48.562;8.910;2022-12-08T06:03:24;-3.50;99.90
15044;DHT22;7619;48.562;8.910;2022-12-08T06:05:53;-3.50;99.90
15044;DHT22;7619;48.562;8.910;2022-12-08T06:08:22;-3.40;99.90
15044;DHT22;7619;48.562;8.910;2022-12-08T06:10:51;-3.40;99.90
15044;DHT22;7619;48.562;8.910;2022-12-08T06:13:20;-3.40;99.90
15044;DHT22;7619;48.562;8.910;2022-12-08T06:15:49;-3.50;99.90
15044;DHT22;7619;48.562;8.910;2022-12-08T06:18:18;-3.50;99.90
15044;DHT22;7619;48.562;8.910;2022-12-08T06:20:47;-3.50;99.90
15044;DHT22;7619;48.562;8.910;2022-12-08T06:23:16;-3.50;99.90
15044;DHT22;7619;48.562;8.910;2022-12-08T06:25:45;-3.50;99.90
15044;DHT22;7619;48.562;8.910;2022-12-08T06:28:14;-3.50;99.90
15044;DHT22;7619;48.562;8.910;2022-12-08T06:30:43;-3.40;99.90
15044;DHT22;7619;48.562;8.910;2022-12-08T06:33:12;-3.40;99.90
15044;DHT22;7619;48.562;8.910;2022-12-08T06:35:41;-3.40;99.90
15044;DHT22;7619;48.562;8.910;2022-12-08T06:38:10;-3.40;99.90
15044;DHT22;7619;48.562;8.910;2022-12-08T06:40:39;-3.40;99.90
15044;DHT22;7619;48.562;8.910;2022-12-08T06:43:08;-3.50;99.90
15044;DHT22;7619;48.562;8.910;2022-12-08T06:45:39;-3.50;99.90
15044;DHT22;7619;48.562;8.910;2022-12-08T06:48:08;-3.50;99.90
15044;DHT22;7619;48.562;8.910;2022-12-08T06:50:37;-3.50;99.90
15044;DHT22;7619;48.562;8.910;2022-12-08T06:53:06;-3.50;99.90
15044;DHT22;7619;48.562;8.910;2022-12-08T06:55:35;-3.50;99.90
15044;DHT22;7619;48.562;8.910;2022-12-08T06:58:04;-3.50;99.90
15044;DHT22;7619;48.562;8.910;2022-12-08T07:00:33;-3.50;99.90
15044;DHT22;7619;48.562;8.910;2022-12-08T07:03:02;-3.50;99.90
15044;DHT22;7619;48.562;8.910;2022-12-08T07:05:31;-3.50;99.90
15044;DHT22;7619;48.562;8.910;2022-12-08T07:08:00;-3.40;99.90
15044;DHT22;7619;48.562;8.910;2022-12-08T07:10:29;-3.40;99.90
15044;DHT22;7619;48.562;8.910;2022-12-08T07:15:27;-3.60;99.90
15044;DHT22;7619;48.562;8.910;2022-12-08T07:17:56;-3.60;99.90
15044;DHT22;7619;48.562;8.910;2022-12-08T07:20:25;-3.60;99.90
15044;DHT22;7619;48.562;8.910;2022-12-08T07:22:55;-3.70;99.90
15044;DHT22;7619;48.562;8.910;2022-12-08T07:25:24;-3.60;99.90
15044;DHT22;7619;48.562;8.910;2022-12-08T07:27:53;-3.60;99.90
15044;DHT22;7619;48.562;8.910;2022-12-08T07:30:22;-3.50;99.90
15044;DHT22;7619;48.562;8.910;2022-12-08T07:32:51;-3.40;99.90
15044;DHT22;7619;48.562;8.910;2022-12-08T07:35:20;-3.20;99.90
15044;DHT22;7619;48.562;8.910;2022-12-08T07:37:49;-3.20;99.90
15044;DHT22;7619;48.562;8.910;2022-12-08T07:40:18;-3.10;99.90
15044;DHT22;7619;48.562;8.910;2022-12-08T07:42:48;-3.10;99.90
15044;DHT22;7619;48.562;8.910;2022-12-08T07:45:17;-2.80;99.90
15044;DHT22;7619;48.562;8.910;2022-12-08T07:47:46;-2.70;99.90
15044;DHT22;7619;48.562;8.910;2022-12-08T07:52:57;-2.30;99.90
15044;DHT22;7619;48.562;8.910;2022-12-08T07:55:26;-2.40;99.90
15044;DHT22;7619;48.562;8.910;2022-12-08T07:57:55;-2.60;99.90
15044;DHT22;7619;48.562;8.910;2022-12-08T08:00:25;-2.50;99.90
15044;DHT22;7619;48.562;8.910;2022-12-08T08:02:54;-2.50;99.90
15044;DHT22;7619;48.562;8.910;2022-12-08T08:05:23;-2.50;99.90
15044;DHT22;7619;48.562;8.910;2022-12-08T08:07:52;-2.50;99.90
15044;DHT22;7619;48.562;8.910;2022-12-08T08:10:21;-2.50;99.90
15044;DHT22;7619;48.562;8.910;2022-12-08T08:12:50;-2.50;99.90
15044;DHT22;7619;48.562;8.910;2022-12-08T08:15:19;-2.40;99.90
15044;DHT22;7619;48.562;8.910;2022-12-08T08:17:50;-2.40;99.90
15044;DHT22;7619;48.562;8.910;2022-12-08T08:20:20;-2.30;99.90
15044;DHT22;7619;48.562;8.910;2022-12-08T08:22:50;-2.30;99.90
15044;DHT22;7619;48.562;8.910;2022-12-08T08:25:20;-2.30;99.90
15044;DHT22;7619;48.562;8.910;2022-12-08T08:27:50;-2.20;99.90
15044;DHT22;7619;48.562;8.910;2022-12-08T08:30:22;-2.20;99.90
15044;DHT22;7619;48.562;8.910;2022-12-08T08:32:51;-2.10;99.90
15044;DHT22;7619;48.562;8.910;2022-12-08T08:35:20;-2.10;99.90
15044;DHT22;7619;48.562;8.910;2022-12-08T08:37:49;-2.00;99.90
15044;DHT22;7619;48.562;8.910;2022-12-08T08:42:55;-1.90;99.90
15044;DHT22;7619;48.562;8.910;2022-12-08T08:48:00;-1.70;99.90
15044;DHT22;7619;48.562;8.910;2022-12-08T08:50:29;-1.60;99.90
15044;DHT22;7619;48.562;8.910;2022-12-08T08:52:58;-1.60;99.90
15044;DHT22;7619;48.562;8.910;2022-12-08T08:55:27;-1.50;99.90
15044;DHT22;7619;48.562;8.910;2022-12-08T08:57:56;-1.50;99.90
15044;DHT22;7619;48.562;8.910;2022-12-08T09:00:25;-1.50;99.90
15044;DHT22;7619;48.562;8.910;2022-12-08T09:02:54;-1.50;99.90
15044;DHT22;7619;48.562;8.910;2022-12-08T09:05:23;-1.40;99.90
15044;DHT22;7619;48.562;8.910;2022-12-08T09:07:53;-1.40;99.90
15044;DHT22;7619;48.562;8.910;2022-12-08T09:10:22;-1.40;99.90
15044;DHT22;7619;48.562;8.910;2022-12-08T09:12:51;-1.20;99.90
15044;DHT22;7619;48.562;8.910;2022-12-08T09:15:20;-1.00;99.90
15044;DHT22;7619;48.562;8.910;2022-12-08T09:17:50;-1.00;99.90
15044;DHT22;7619;48.562;8.910;2022-12-08T09:20:19;-0.90;99.90
15044;DHT22;7619;48.562;8.910;2022-12-08T09:22:48;-0.80;99.90
15044;DHT22;7619;48.562;8.910;2022-12-08T09:25:18;-0.50;99.90
15044;DHT22;7619;48.562;8.910;2022-12-08T09:27:47;3.40;99.90
15044;DHT22;7619;48.562;8.910;2022-12-08T09:30:16;3.00;99.90
15044;DHT22;7619;48.562;8.910;2022-12-08T09:32:46;2.90;99.90
15044;DHT22;7619;48.562;8.910;2022-12-08T09:35:16;2.00;99.90
15044;DHT22;7619;48.562;8.910;2022-12-08T09:37:45;1.10;99.90
15044;DHT22;7619;48.562;8.910;2022-12-08T09:40:17;0.50;99.90
15044;DHT22;7619;48.562;8.910;2022-12-08T09:42:50;0.20;99.90
15044;DHT22;7619;48.562;8.910;2022-12-08T09:45:20;-0.10;99.90
15044;DHT22;7619;48.562;8.910;2022-12-08T09:47:57;-0.10;99.90
15044;DHT22;7619;48.562;8.910;2022-12-08T09:53:12;-0.10;99.90
15044;DHT22;7619;48.562;8.910;2022-12-08T09:55:45;-0.20;99.90
15044;DHT22;7619;48.562;8.910;2022-12-08T09:58:19;-0.10;99.90
15044;DHT22;7619;48.562;8.910;2022-12-08T10:03:28;-0.10;99.90
15044;DHT22;7619;48.562;8.910;2022-12-08T10:06:02;-0.10;99.90
15044;DHT22;7619;48.562;8.910;2022-12-08T10:08:35;0.00;99.90
15044;DHT22;7619;48.562;8.910;2022-12-08T10:11:07;0.20;99.90
15044;DHT22;7619;48.562;8.910;2022-12-08T10:13:39;0.20;99.90
15044;DHT22;7619;48.562;8.910;2022-12-08T10:16:17;0.20;99.90
15044;DHT22;7619;48.562;8.910;2022-12-08T10:18:45;0.30;99.90
15044;DHT22;7619;48.562;8.910;2022-12-08T10:21:18;0.40;99.90
15044;DHT22;7619;48.562;8.910;2022-12-08T10:23:50;0.30;99.90
15044;DHT22;7619;48.562;8.910;2022-12-08T10:31:41;0.50;99.90
15044;DHT22;7619;48.562;8.910;2022-12-08T10:34:14;0.60;99.90
15044;DHT22;7619;48.562;8.910;2022-12-08T10:36:49;0.60;99.90
15044;DHT22;7619;48.562;8.910;2022-12-08T10:39:34;1.00;99.90
15044;DHT22;7619;48.562;8.910;2022-12-08T10:42:14;1.00;99.90
15044;DHT22;7619;48.562;8.910;2022-12-08T10:44:50;1.00;99.90
15044;DHT22;7619;48.562;8.910;2022-12-08T10:47:21;1.00;99.90
15044;DHT22;7619;48.562;8.910;2022-12-08T10:50:06;1.00;99.90
15044;DHT22;7619;48.562;8.910;2022-12-08T10:52:39;1.30;99.90
15044;DHT22;7619;48.562;8.910;2022-12-08T10:55:16;1.30;99.90
15044;DHT22;7619;48.562;8.910;2022-12-08T10:57:46;1.30;99.90
15044;DHT22;7619;48.562;8.910;2022-12-08T11:00:19;1.30;99.90
15044;DHT22;7619;48.562;8.910;2022-12-08T11:02:57;1.30;99.90
15044;DHT22;7619;48.562;8.910;2022-12-08T11:05:30;1.20;99.90
15044;DHT22;7619;48.562;8.910;2022-12-08T11:07:59;1.30;99.90
15044;DHT22;7619;48.562;8.910;2022-12-08T11:10:37;1.40;99.90
15044;DHT22;7619;48.562;8.910;2022-12-08T11:13:11;1.80;99.90
15044;DHT22;7619;48.562;8.910;2022-12-08T11:15:40;1.80;99.90
15044;DHT22;7619;48.562;8.910;2022-12-08T11:18:20;1.90;99.90
15044;DHT22;7619;48.562;8.910;2022-12-08T11:20:55;2.00;99.90
15044;DHT22;7619;48.562;8.910;2022-12-08T11:23:26;2.20;99.90
15044;DHT22;7619;48.562;8.910;2022-12-08T11:26:00;2.30;99.90
15044;DHT22;7619;48.562;8.910;2022-12-08T11:28:29;2.60;99.90
15044;DHT22;7619;48.562;8.910;2022-12-08T11:31:01;2.70;99.90
15044;DHT22;7619;48.562;8.910;2022-12-08T11:33:31;2.90;99.90
15044;DHT22;7619;48.562;8.910;2022-12-08T11:36:03;2.90;99.90
15044;DHT22;7619;48.562;8.910;2022-12-08T11:38:33;2.90;1.00
15044;DHT22;7619;48.562;8.910;2022-12-08T11:41:06;2.90;99.90
15044;DHT22;7619;48.562;8.910;2022-12-08T11:43:41;2.90;1.00
15044;DHT22;7619;48.562;8.910;2022-12-08T11:46:13;2.90;1.00
15044;DHT22;7619;48.562;8.910;2022-12-08T11:48:47;3.20;27.80
15044;DHT22;7619;48.562;8.910;2022-12-08T11:51:20;3.10;99.90
15044;DHT22;7619;48.562;8.910;2022-12-08T11:53:58;2.90;99.90
15044;DHT22;7619;48.562;8.910;2022-12-08T11:56:31;2.90;1.00
15044;DHT22;7619;48.562;8.910;2022-12-08T11:59:02;3.00;99.90
15044;DHT22;7619;48.562;8.910;2022-12-08T12:01:31;3.10;99.90
15044;DHT22;7619;48.562;8.910;2022-12-08T12:04:06;3.10;99.90
15044;DHT22;7619;48.562;8.910;2022-12-08T12:09:45;3.70;1.00
15044;DHT22;7619;48.562;8.910;2022-12-08T12:12:19;3.70;99.90
15044;DHT22;7619;48.562;8.910;2022-12-08T12:18:10;3.70;1.00
15044;DHT22;7619;48.562;8.910;2022-12-08T12:23:21;4.20;1.00
15044;DHT22;7619;48.562;8.910;2022-12-08T12:28:39;4.70;1.00
15044;DHT22;7619;48.562;8.910;2022-12-08T12:33:46;4.20;1.00
15044;DHT22;7619;48.562;8.910;2022-12-08T12:36:17;4.20;1.00
15044;DHT22;7619;48.562;8.910;2022-12-08T12:38:48;3.90;1.00
15044;DHT22;7619;48.562;8.910;2022-12-08T12:41:36;3.90;1.00
15044;DHT22;7619;48.562;8.910;2022-12-08T12:47:14;3.90;1.00
15044;DHT22;7619;48.562;8.910;2022-12-08T12:52:49;3.80;1.00
15044;DHT22;7619;48.562;8.910;2022-12-08T12:58:41;3.90;99.90
15044;DHT22;7619;48.562;8.910;2022-12-08T13:04:33;4.20;1.00
15044;DHT22;7619;48.562;8.910;2022-12-08T13:09:40;3.80;99.90
15044;DHT22;7619;48.562;8.910;2022-12-08T13:14:49;3.50;99.90
15044;DHT22;7619;48.562;8.910;2022-12-08T13:17:28;3.50;1.00
15044;DHT22;7619;48.562;8.910;2022-12-08T13:19:58;3.50;1.00
15044;DHT22;7619;48.562;8.910;2022-12-08T13:22:46;3.30;1.00
15044;DHT22;7619;48.562;8.910;2022-12-08T13:28:30;3.30;1.00
15044;DHT22;7619;48.562;8.910;2022-12-08T13:31:00;3.30;99.90
15044;DHT22;7619;48.562;8.910;2022-12-08T13:33:31;3.30;99.90
15044;DHT22;7619;48.562;8.910;2022-12-08T13:36:07;3.30;99.90
15044;DHT22;7619;48.562;8.910;2022-12-08T13:38:36;3.50;99.90
15044;DHT22;7619;48.562;8.910;2022-12-08T13:41:11;3.50;99.90
15044;DHT22;7619;48.562;8.910;2022-12-08T13:43:44;3.40;99.90
15044;DHT22;7619;48.562;8.910;2022-12-08T13:46:19;3.50;99.90
15044;DHT22;7619;48.562;8.910;2022-12-08T13:48:50;3.50;99.90
15044;DHT22;7619;48.562;8.910;2022-12-08T13:51:22;3.50;99.90
15044;DHT22;7619;48.562;8.910;2022-12-08T13:53:57;3.30;1.00
15044;DHT22;7619;48.562;8.910;2022-12-08T13:56:28;3.40;1.00
15044;DHT22;7619;48.562;8.910;2022-12-08T13:59:23;3.40;1.00
15044;DHT22;7619;48.562;8.910;2022-12-08T14:01:57;3.40;1.00
15044;DHT22;7619;48.562;8.910;2022-12-08T14:07:03;3.30;1.00
15044;DHT22;7619;48.562;8.910;2022-12-08T14:09:34;3.30;1.00
15044;DHT22;7619;48.562;8.910;2022-12-08T14:12:06;3.30;1.00
15044;DHT22;7619;48.562;8.910;2022-12-08T14:14:39;3.30;1.00
15044;DHT22;7619;48.562;8.910;2022-12-08T14:19:55;3.20;1.00
15044;DHT22;7619;48.562;8.910;2022-12-08T14:22:30;3.20;1.00
15044;DHT22;7619;48.562;8.910;2022-12-08T14:24:54;3.20;1.00
15044;DHT22;7619;48.562;8.910;2022-12-08T14:27:26;3.10;1.00
15044;DHT22;7619;48.562;8.910;2022-12-08T14:32:41;3.10;1.00
15044;DHT22;7619;48.562;8.910;2022-12-08T14:35:18;3.00;1.00
15044;DHT22;7619;48.562;8.910;2022-12-08T14:37:49;3.00;1.00
15044;DHT22;7619;48.562;8.910;2022-12-08T14:40:22;3.10;1.00
15044;DHT22;7619;48.562;8.910;2022-12-08T14:42:53;3.00;1.00
15044;DHT22;7619;48.562;8.910;2022-12-08T14:45:23;3.00;1.00
15044;DHT22;7619;48.562;8.910;2022-12-08T14:47:53;3.00;1.00
15044;DHT22;7619;48.562;8.910;2022-12-08T14:50:38;2.90;5.30
15044;DHT22;7619;48.562;8.910;2022-12-08T14:53:12;2.90;24.30
15044;DHT22;7619;48.562;8.910;2022-12-08T14:55:43;2.90;53.70
15044;DHT22;7619;48.562;8.910;2022-12-08T14:58:21;2.90;21.60
15044;DHT22;7619;48.562;8.910;2022-12-08T15:00:54;2.80;83.60
15044;DHT22;7619;48.562;8.910;2022-12-08T15:03:24;2.70;1.00
15044;DHT22;7619;48.562;8.910;2022-12-08T15:05:58;2.70;99.90
15044;DHT22;7619;48.562;8.910;2022-12-08T15:08:27;2.70;24.40
15044;DHT22;7619;48.562;8.910;2022-12-08T15:11:29;2.70;99.90
15044;DHT22;7619;48.562;8.910;2022-12-08T15:16:40;2.60;99.90
15044;DHT22;7619;48.562;8.910;2022-12-08T15:19:17;2.60;99.90
15044;DHT22;7619;48.562;8.910;2022-12-08T15:21:48;2.60;99.90
15044;DHT22;7619;48.562;8.910;2022-12-08T15:24:18;2.70;1.00
15044;DHT22;7619;48.562;8.910;2022-12-08T15:26:50;2.60;1.00
15044;DHT22;7619;48.562;8.910;2022-12-08T15:29:21;2.50;99.90
15044;DHT22;7619;48.562;8.910;2022-12-08T15:31:53;2.50;99.90
15044;DHT22;7619;48.562;8.910;2022-12-08T15:34:22;2.40;1.00
15044;DHT22;7619;48.562;8.910;2022-12-08T15:36:53;2.40;1.00
15044;DHT22;7619;48.562;8.910;2022-12-08T15:39:30;2.30;1.00
15044;DHT22;7619;48.562;8.910;2022-12-08T15:42:00;2.20;1.00
15044;DHT22;7619;48.562;8.910;2022-12-08T15:44:29;2.20;1.00
15044;DHT22;7619;48.562;8.910;2022-12-08T15:49:36;2.10;1.00
15044;DHT22;7619;48.562;8.910;2022-12-08T15:52:10;2.10;96.30
15044;DHT22;7619;48.562;8.910;2022-12-08T15:54:40;2.10;37.20
15044;DHT22;7619;48.562;8.910;2022-12-08T15:57:17;2.10;99.90
15044;DHT22;7619;48.562;8.910;2022-12-08T15:59:47;2.00;99.90
15044;DHT22;7619;48.562;8.910;2022-12-08T16:02:17;2.00;99.90
15044;DHT22;7619;48.562;8.910;2022-12-08T16:04:47;1.90;99.90
15044;DHT22;7619;48.562;8.910;2022-12-08T16:07:21;1.90;1.00
15044;DHT22;7619;48.562;8.910;2022-12-08T16:09:50;1.80;1.00
15044;DHT22;7619;48.562;8.910;2022-12-08T16:12:21;1.70;1.00
15044;DHT22;7619;48.562;8.910;2022-12-08T16:15:10;1.60;1.00
15044;DHT22;7619;48.562;8.910;2022-12-08T16:17:40;1.50;99.90
15044;DHT22;7619;48.562;8.910;2022-12-08T16:20:14;1.50;99.90
15044;DHT22;7619;48.562;8.910;2022-12-08T16:22:44;1.30;1.00
15044;DHT22;7619;48.562;8.910;2022-12-08T16:25:13;1.30;99.90
15044;DHT22;7619;48.562;8.910;2022-12-08T16:27:42;1.20;99.90
15044;DHT22;7619;48.562;8.910;2022-12-08T16:30:15;1.20;1.00
15044;DHT22;7619;48.562;8.910;2022-12-08T16:32:45;1.20;1.00
15044;DHT22;7619;48.562;8.910;2022-12-08T16:35:14;1.20;42.30
15044;DHT22;7619;48.562;8.910;2022-12-08T16:37:43;1.20;1.00
15044;DHT22;7619;48.562;8.910;2022-12-08T16:40:13;1.20;99.90
15044;DHT22;7619;48.562;8.910;2022-12-08T16:42:42;1.10;99.90
15044;DHT22;7619;48.562;8.910;2022-12-08T16:45:14;1.10;1.00
15044;DHT22;7619;48.562;8.910;2022-12-08T16:47:44;1.00;99.90
15044;DHT22;7619;48.562;8.910;2022-12-08T16:50:16;1.00;1.00
15044;DHT22;7619;48.562;8.910;2022-12-08T16:52:46;1.00;1.00
15044;DHT22;7619;48.562;8.910;2022-12-08T16:55:17;1.00;1.00
15044;DHT22;7619;48.562;8.910;2022-12-08T16:57:47;0.90;1.00
15044;DHT22;7619;48.562;8.910;2022-12-08T17:00:19;0.90;1.00
15044;DHT22;7619;48.562;8.910;2022-12-08T17:02:48;1.00;99.90
15044;DHT22;7619;48.562;8.910;2022-12-08T17:05:19;1.00;1.00
15044;DHT22;7619;48.562;8.910;2022-12-08T17:07:50;1.20;99.90
15044;DHT22;7619;48.562;8.910;2022-12-08T17:10:21;1.40;1.00
15044;DHT22;7619;48.562;8.910;2022-12-08T17:15:30;1.30;99.90
15044;DHT22;7619;48.562;8.910;2022-12-08T17:17:59;1.10;1.00
15044;DHT22;7619;48.562;8.910;2022-12-08T17:23:06;1.00;1.00
15044;DHT22;7619;48.562;8.910;2022-12-08T17:25:35;1.00;99.90
15044;DHT22;7619;48.562;8.910;2022-12-08T17:28:04;1.00;99.90
15044;DHT22;7619;48.562;8.910;2022-12-08T17:30:34;1.00;99.90
15044;DHT22;7619;48.562;8.910;2022-12-08T17:33:07;1.30;99.90
15044;DHT22;7619;48.562;8.910;2022-12-08T17:35:46;1.30;99.90
15044;DHT22;7619;48.562;8.910;2022-12-08T17:38:16;1.20;10.90
15044;DHT22;7619;48.562;8.910;2022-12-08T17:40:45;1.20;21.60
15044;DHT22;7619;48.562;8.910;2022-12-08T17:43:15;1.00;1.00
15044;DHT22;7619;48.562;8.910;2022-12-08T17:48:25;1.20;99.90
15044;DHT22;7619;48.562;8.910;2022-12-08T17:50:54;1.10;99.90
15044;DHT22;7619;48.562;8.910;2022-12-08T17:53:23;1.10;99.90
15044;DHT22;7619;48.562;8.910;2022-12-08T17:55:54;0.90;1.00
15044;DHT22;7619;48.562;8.910;2022-12-08T17:58:23;0.80;1.00
15044;DHT22;7619;48.562;8.910;2022-12-08T18:00:53;0.70;1.00
15044;DHT22;7619;48.562;8.910;2022-12-08T18:03:21;0.60;1.00
15044;DHT22;7619;48.562;8.910;2022-12-08T18:05:50;0.50;1.00
15044;DHT22;7619;48.562;8.910;2022-12-08T18:08:19;0.50;99.90
15044;DHT22;7619;48.562;8.910;2022-12-08T18:10:48;0.50;99.90
15044;DHT22;7619;48.562;8.910;2022-12-08T18:13:17;0.50;99.90
15044;DHT22;7619;48.562;8.910;2022-12-08T18:15:47;0.50;1.00
15044;DHT22;7619;48.562;8.910;2022-12-08T18:20:54;0.50;1.00
15044;DHT22;7619;48.562;8.910;2022-12-08T18:23:23;0.50;1.00
15044;DHT22;7619;48.562;8.910;2022-12-08T18:25:52;0.40;1.00
15044;DHT22;7619;48.562;8.910;2022-12-08T18:30:59;0.30;1.00
15044;DHT22;7619;48.562;8.910;2022-12-08T18:33:28;0.30;99.90
15044;DHT22;7619;48.562;8.910;2022-12-08T18:35:57;0.30;1.00
15044;DHT22;7619;48.562;8.910;2022-12-08T18:38:26;0.20;1.00
15044;DHT22;7619;48.562;8.910;2022-12-08T18:40:55;0.20;1.00
15044;DHT22;7619;48.562;8.910;2022-12-08T18:43:25;0.20;1.00
15044;DHT22;7619;48.562;8.910;2022-12-08T18:46:01;0.10;1.00
15044;DHT22;7619;48.562;8.910;2022-12-08T18:48:30;0.00;99.90
15044;DHT22;7619;48.562;8.910;2022-12-08T18:50:59;-0.10;99.90
15044;DHT22;7619;48.562;8.910;2022-12-08T18:53:28;-0.20;1.00
15044;DHT22;7619;48.562;8.910;2022-12-08T18:55:58;-0.20;1.00
15044;DHT22;7619;48.562;8.910;2022-12-08T19:01:06;-0.40;1.00
15044;DHT22;7619;48.562;8.910;2022-12-08T19:03:37;-0.40;99.90
15044;DHT22;7619;48.562;8.910;2022-12-08T19:06:07;-0.50;1.00
15044;DHT22;7619;48.562;8.910;2022-12-08T19:08:36;-0.50;99.90
15044;DHT22;7619;48.562;8.910;2022-12-08T19:11:05;-0.50;99.90
15044;DHT22;7619;48.562;8.910;2022-12-08T19:13:36;-0.50;1.00
15044;DHT22;7619;48.562;8.910;2022-12-08T19:16:06;-0.50;1.00
15044;DHT22;7619;48.562;8.910;2022-12-08T19:18:36;-0.60;99.90
15044;DHT22;7619;48.562;8.910;2022-12-08T19:21:07;-0.50;1.00
15044;DHT22;7619;48.562;8.910;2022-12-08T19:23:36;-0.60;1.00
15044;DHT22;7619;48.562;8.910;2022-12-08T19:28:41;-0.80;99.90
15044;DHT22;7619;48.562;8.910;2022-12-08T19:31:11;-0.80;99.90
15044;DHT22;7619;48.562;8.910;2022-12-08T19:33:40;-0.90;99.90
15044;DHT22;7619;48.562;8.910;2022-12-08T19:38:46;-1.20;1.00
15044;DHT22;7619;48.562;8.910;2022-12-08T19:41:33;-1.10;1.00
15044;DHT22;7619;48.562;8.910;2022-12-08T19:46:57;-1.10;87.30
15044;DHT22;7619;48.562;8.910;2022-12-08T19:49:26;2.30;1.00
15044;DHT22;7619;48.562;8.910;2022-12-08T19:51:56;-1.20;30.60
15044;DHT22;7619;48.562;8.910;2022-12-08T19:54:25;-1.20;99.90
15044;DHT22;7619;48.562;8.910;2022-12-08T19:56:55;-1.30;1.00
15044;DHT22;7619;48.562;8.910;2022-12-08T19:59:24;-1.50;1.00
15044;DHT22;7619;48.562;8.910;2022-12-08T20:01:53;-1.50;99.90
15044;DHT22;7619;48.562;8.910;2022-12-08T20:04:23;-1.60;99.90
15044;DHT22;7619;48.562;8.910;2022-12-08T20:06:54;-1.60;1.00
15044;DHT22;7619;48.562;8.910;2022-12-08T20:09:24;-1.60;1.00
15044;DHT22;7619;48.562;8.910;2022-12-08T20:11:53;-1.50;99.90
15044;DHT22;7619;48.562;8.910;2022-12-08T20:14:22;-1.50;99.90
15044;DHT22;7619;48.562;8.910;2022-12-08T20:16:51;-1.40;1.00
15044;DHT22;7619;48.562;8.910;2022-12-08T20:19:20;-1.40;72.60
15044;DHT22;7619;48.562;8.910;2022-12-08T20:21:49;-1.50;1.00